Portada
METAR-TAF:

METAR-TAF

Aeroports :

Aeroport de Rabat

Rabat, Marroc

latitud: 34-03N, longitud: 006-46W, altitud: 84 m

Observació

L'informe es va fer fa 34 minuts, a les 18:00 UTC
Vent 6 kt del Nord, variant entre Nord i Est
Temperatura 25°C
Humitat 65%
Pressió 1013 hPa
Visibilitat: 6000 m

METAR: GMME 231800Z 01006KT 350V090 6000 NSC 25/18 Q1013 NOSIG

Hora: 19:34 (18:34 UTC)

Pronòstic

L'informe es va fer fa 1 hora i 34 minuts, a les 17:00 UTC
Pronòstic vàlid del 23 a les 18 UTC al 24 a les 24 UTC
Vent 7 kt del Est/Nord-Est
Visibilitat: 6000 m
Cel ennuvolat a una alçada de 10000 ft
Temporalment
l' 23 a les 23 UTC al 24 a les 07 UTC
Vent 2 kt amb direcció variable
Núvols disperses a una alçada de 10000 ft
Evolucionant progressivament
l' 24 a les 09 UTC al 24 a les 11 UTC
Vent 11 kt del Nord
Visibilitat 10 km o més
sense núvols per sota de 1500 mi sense presència de cumulonimbus.

TAF: GMME 231700Z 2318/2424 06007KT 6000 BKN100 TEMPO 2323/2407 VRB02KT SCT100 BECMG 2409/2411 36011KT CAVOK

Observacions i pronòstics meteorològics de més de 4000 aeroports (METAR i TAF).

Les estacions disponibles són els punts grocs i vermells al mapa.

Posi el ratolí al punt desitjat per veure el nom de l'estació.

Feu clic per veure les observacions i els pronòstics meteorològics.

Per canviar el mapa: feu clic els botons verds amb una creu de color negre per apropar; al botó verd amb un guió per allunyar la imatge; o en les fletxes verdes per a mapes adjacents.


METAR-TAF: